M I D A S
Marine Information and Data Acquisition System
Tripno 1715 of the Zeeleeuw from 2009-06-24 06:47:07 to 2009-06-24 15:11:18
Back to CruiseResearch ActivitiesStationsMapUnderway DataData graphs

EquipmentUnitsComment
TimeDGPSUTC
LatitudeDGPSDM.mWGS84
LongitudeDGPSDM.mWGS84
HeadingGyrodeg 
SOGDGPSknotsSpeed over ground
COGDGPSdegCourse over ground
DepthEcho soundermeters200 kHz
Missing or incorrect values are displayed as -999
Navigation data collected by the RV Zeeleeuw from 2009-06-24 06:44:21 to 2009-06-24 15:18:51
Time Latitude Longitude Heading SOG COG Depth
2009-06-24 06:45:27 51°13.682 2°55.9 117.1 2.9 299 -999
2009-06-24 06:46:27 51°13.694 2°55.807 92 4.1 273 -999
2009-06-24 06:47:26 51°13.694 2°55.742 72.4 0.6 295 11.8
2009-06-24 06:48:24 51°13.729 2°55.746 356.2 3 347 10.5
2009-06-24 06:49:23 51°13.775 2°55.691 320.6 3.9 320 8.3
2009-06-24 06:50:23 51°13.839 2°55.637 348.5 3.8 351 8.6
2009-06-24 06:51:23 51°13.899 2°55.658 25.5 3.2 16 7.6
2009-06-24 06:52:23 51°13.937 2°55.662 351.2 1.4 348 9.2
2009-06-24 06:53:24 51°13.956 2°55.649 335.9 1 331 9.7
2009-06-24 06:54:23 51°13.967 2°55.637 337.3 0.5 321 9.5
2009-06-24 06:55:23 51°13.961 2°55.638 338 0.4 173 4.9
2009-06-24 06:56:23 51°13.955 2°55.638 337.5 0.3 174 10
2009-06-24 06:57:23 51°13.951 2°55.639 341.4 0.2 167 9.5
2009-06-24 06:58:24 51°13.949 2°55.64 345.5 0.1 213 9.2
2009-06-24 06:59:23 51°13.951 2°55.635 340.5 0.3 305 9.6
2009-06-24 07:00:23 51°13.963 2°55.622 331.8 1.7 327 9.5
2009-06-24 07:01:23 51°14.007 2°55.569 322.9 5.6 321 9.3
2009-06-24 07:02:23 51°14.102 2°55.453 326 7.9 323 8.8
2009-06-24 07:03:23 51°14.202 2°55.335 326.3 6.5 323 9
2009-06-24 07:04:23 51°14.277 2°55.224 314.4 6.8 311 8.9
2009-06-24 07:05:23 51°14.375 2°55.025 312.9 10.9 309 8.6
2009-06-24 07:06:24 51°14.511 2°54.815 331.4 11.4 321 8.8
2009-06-24 07:07:24 51°14.658 2°54.622 334.6 11.3 323 8.2
2009-06-24 07:08:24 51°14.805 2°54.438 326.3 11.4 316 8.3
2009-06-24 07:09:24 51°14.928 2°54.206 313.7 11.4 306 -999
2009-06-24 07:10:24 51°15.061 2°54.002 330.9 11 324 7.7
2009-06-24 07:11:24 51°15.217 2°53.854 341.2 10.9 331 8.1
2009-06-24 07:12:24 51°15.377 2°53.714 341.6 11 331 8.4
2009-06-24 07:13:24 51°15.531 2°53.55 334.9 11.2 324 8.9
2009-06-24 07:14:24 51°15.683 2°53.369 335 11.6 323 9.4
2009-06-24 07:15:24 51°15.835 2°53.189 335.2 11.3 323 9.9
2009-06-24 07:16:24 51°15.992 2°53.024 340.6 11.4 330 10.4
2009-06-24 07:17:24 51°16.152 2°52.872 341.2 11.2 329 10.6
2009-06-24 07:18:24 51°16.311 2°52.715 340.4 11.2 328 10.7
2009-06-24 07:19:24 51°16.468 2°52.552 340.2 11.4 327 10.2
2009-06-24 07:20:24 51°16.629 2°52.407 341 11 334 9.7
2009-06-24 07:21:24 51°16.796 2°52.299 348.4 10.7 339 9.2
2009-06-24 07:22:24 51°16.965 2°52.216 352.5 10.5 346 8.5
2009-06-24 07:23:24 51°17.136 2°52.159 356.5 10.5 349 9.3
2009-06-24 07:24:24 51°17.308 2°52.103 356.5 10.4 349 9.8
2009-06-24 07:25:24 51°17.474 2°52.03 341.8 10.5 333 9.7
2009-06-24 07:26:24 51°17.606 2°51.83 318.8 11.3 309 9
2009-06-24 07:27:24 51°17.718 2°51.587 314.4 11.5 304 8.4
2009-06-24 07:28:24 51°17.811 2°51.315 304.9 11.8 296 8.5
2009-06-24 07:29:24 51°17.897 2°51.033 303 11.9 296 10
2009-06-24 07:30:24 51°17.984 2°50.747 304.5 12 296 11.2
2009-06-24 07:31:24 51°18.07 2°50.459 303.9 12.1 295 12
2009-06-24 07:32:24 51°18.161 2°50.171 304.9 12.1 296 12.3
2009-06-24 07:33:24 51°18.246 2°49.879 304.1 12.1 295 12.5
2009-06-24 07:34:24 51°18.334 2°49.592 305.2 11.9 297 11.7
2009-06-24 07:35:24 51°18.422 2°49.308 305.6 12 296 10.1
2009-06-24 07:36:24 51°18.514 2°49.024 305.4 12.1 297 9.5
2009-06-24 07:37:24 51°18.605 2°48.738 304.9 12.1 297 9.7
2009-06-24 07:38:24 51°18.698 2°48.45 304.9 12.2 296 11.5
2009-06-24 07:39:24 51°18.804 2°48.183 323.9 11.4 313 13.2
2009-06-24 07:40:24 51°18.949 2°47.993 333.3 11.3 322 15.6
2009-06-24 07:41:24 51°19.1 2°47.81 333 11.5 321 17.5
2009-06-24 07:42:24 51°19.247 2°47.622 333.7 11.4 322 18.6
2009-06-24 07:43:24 51°19.401 2°47.44 335.4 11.4 324 20.4
2009-06-24 07:44:24 51°19.554 2°47.26 334.8 11.4 323 19.8
2009-06-24 07:45:24 51°19.705 2°47.075 335.2 11.5 323 20.3
2009-06-24 07:46:24 51°19.866 2°46.999 16.5 9.6 8 19.5
2009-06-24 07:47:24 51°20.012 2°47.092 34.8 9.6 26 17.4
2009-06-24 07:48:24 51°20.152 2°47.207 34.7 9.5 25 17.4
2009-06-24 07:49:24 51°20.302 2°47.301 28.9 9.8 20 17.4
2009-06-24 07:50:24 51°20.461 2°47.368 24.5 9.9 14 17.4
2009-06-24 07:51:24 51°20.619 2°47.428 22.6 9.8 11 17.3
2009-06-24 07:52:24 51°20.786 2°47.443 9.4 10.3 357 15.2
2009-06-24 07:53:24 51°20.96 2°47.387 358.1 10.9 344 18.7
2009-06-24 07:54:24 51°21.131 2°47.284 352.4 10.9 339 20.4
2009-06-24 07:55:24 51°21.3 2°47.163 348.6 11.2 334 22.2
2009-06-24 07:56:24 51°21.46 2°46.999 333.6 11.7 319 22.1
2009-06-24 07:57:24 51°21.604 2°46.782 327.4 11.9 317 23.2
2009-06-24 07:58:24 51°21.741 2°46.556 323.8 12.1 311 23.2
2009-06-24 07:59:24 51°21.872 2°46.316 323.9 11.8 313 21.9
2009-06-24 08:00:24 51°22.009 2°46.087 324.9 11.9 314 20.2
2009-06-24 08:01:24 51°22.141 2°45.869 325.9 11.4 314 19.6
2009-06-24 08:02:24 51°22.272 2°45.65 326 11.5 312 21.3
2009-06-24 08:03:24 51°22.404 2°45.431 325.6 11.6 313 22.3
2009-06-24 08:04:24 51°22.534 2°45.21 326.5 11.5 309 23.7
2009-06-24 08:05:24 51°22.661 2°44.99 326 11.2 314 24.9
2009-06-24 08:06:24 51°22.794 2°44.772 326.7 11.6 314 24.7
2009-06-24 08:07:24 51°22.929 2°44.545 326.1 11.9 313 25.3
2009-06-24 08:08:24 51°23.064 2°44.316 326.9 11.8 315 25.6
2009-06-24 08:09:24 51°23.197 2°44.087 325.7 11.8 313 26
2009-06-24 08:10:24 51°23.331 2°43.857 326 11.9 311 24.2
2009-06-24 08:11:24 51°23.466 2°43.625 327.1 12.1 313 25.7
2009-06-24 08:12:24 51°23.603 2°43.399 328.6 11.9 314 25.8
2009-06-24 08:13:24 51°23.75 2°43.203 343.1 11.1 328 22.9
2009-06-24 08:14:24 51°23.909 2°43.068 349.7 10.9 333 23.9
2009-06-24 08:15:24 51°24.075 2°42.942 349.2 11 335 24.1
2009-06-24 08:16:24 51°24.238 2°42.813 348.4 10.7 333 20.9
2009-06-24 08:17:24 51°24.398 2°42.682 347.7 10.9 332 23
2009-06-24 08:18:24 51°24.555 2°42.547 347.8 10.7 332 22.8
2009-06-24 08:19:24 51°24.711 2°42.417 346.8 10.5 332 24.7
2009-06-24 08:20:24 51°24.868 2°42.28 346.5 10.8 331 23.3
2009-06-24 08:21:24 51°25.024 2°42.141 346.6 10.8 329 22
2009-06-24 08:22:24 51°25.181 2°42.003 346.5 10.9 330 23.2
2009-06-24 08:23:24 51°25.338 2°41.869 345.8 10.7 333 24.6
2009-06-24 08:24:24 51°25.497 2°41.733 346.3 10.8 330 25.1
2009-06-24 08:25:24 51°25.654 2°41.601 345.9 10.8 331 25
2009-06-24 08:26:24 51°25.811 2°41.471 346.8 10.6 332 25.5
2009-06-24 08:27:24 51°25.966 2°41.332 346.3 10.7 330 27.9
2009-06-24 08:28:24 51°26.123 2°41.196 346.9 10.7 332 27.6
2009-06-24 08:29:24 51°26.282 2°41.062 346.3 10.8 333 27.8
2009-06-24 08:30:24 51°26.442 2°40.92 346.3 11 331 30
2009-06-24 08:31:24 51°26.599 2°40.782 346.3 10.7 332 30.4
2009-06-24 08:32:24 51°26.758 2°40.642 346.6 10.9 332 28.8
2009-06-24 08:33:24 51°26.911 2°40.506 346.5 10.6 334 30.8
2009-06-24 08:34:24 51°27.071 2°40.371 345.9 10.9 332 32.1
2009-06-24 08:35:24 51°27.23 2°40.234 346.2 10.5 333 31.9
2009-06-24 08:36:24 51°27.388 2°40.108 346.9 10.6 334 32.4
2009-06-24 08:37:24 51°27.543 2°39.984 346 10.2 333 29.7
2009-06-24 08:38:24 51°27.694 2°39.865 347.3 10.3 335 32.3
2009-06-24 08:39:24 51°27.843 2°39.744 346.6 9.8 333 32.6
2009-06-24 08:40:24 51°27.991 2°39.618 345.8 10.2 332 33.7
2009-06-24 08:41:24 51°28.143 2°39.492 345.8 10.1 333 33.3
2009-06-24 08:42:24 51°28.299 2°39.427 7.6 9.5 357 33.9
2009-06-24 08:43:24 51°28.455 2°39.455 21.4 9.3 18 34.1
2009-06-24 08:44:24 51°28.596 2°39.547 33.2 9.3 31 34.6
2009-06-24 08:45:24 51°28.689 2°39.733 59.6 9.1 67 36
2009-06-24 08:46:24 51°28.75 2°39.956 61.5 9.2 64 32.8
2009-06-24 08:47:24 51°28.826 2°40.172 58 9.1 60 34.1
2009-06-24 08:48:24 51°28.904 2°40.391 56.8 9.6 59 32.9
2009-06-24 08:49:24 51°28.984 2°40.608 56.8 9.4 58 32.7
2009-06-24 08:50:24 51°29.063 2°40.822 57.4 9.3 58 32.9
2009-06-24 08:51:24 51°29.141 2°41.038 57 9.4 61 33
2009-06-24 08:52:24 51°29.219 2°41.249 58 9 61 34
2009-06-24 08:53:24 51°29.296 2°41.457 58.1 9 60 32.5
2009-06-24 08:54:24 51°29.374 2°41.664 57.7 8.9 59 31.2
2009-06-24 08:55:24 51°29.449 2°41.876 58.1 9 62 32.4
2009-06-24 08:56:24 51°29.52 2°42.084 58.5 8.8 60 30
2009-06-24 08:57:24 51°29.596 2°42.293 57.6 9.1 60 33.5
2009-06-24 08:58:24 51°29.669 2°42.503 58.9 8.8 60 35.6
2009-06-24 08:59:24 51°29.744 2°42.712 58.1 9.2 60 34.7
2009-06-24 09:00:24 51°29.819 2°42.926 58.1 9.1 60 30.9
2009-06-24 09:01:24 51°29.893 2°43.134 58.1 9 57 31.7
2009-06-24 09:02:24 51°29.966 2°43.341 57.8 8.8 62 28.9
2009-06-24 09:03:24 51°30.038 2°43.544 58.9 8.8 59 29.7
2009-06-24 09:04:24 51°30.111 2°43.747 57.9 8.6 59 29.8
2009-06-24 09:05:24 51°30.184 2°43.948 58.4 8.9 60 33.6
2009-06-24 09:06:24 51°30.261 2°44.152 57.3 8.9 59 32.8
2009-06-24 09:07:24 51°30.332 2°44.356 58.9 8.3 60 31.2
2009-06-24 09:08:24 51°30.401 2°44.555 58.5 8.5 62 29.6
2009-06-24 09:09:24 51°30.474 2°44.753 57.8 9 59 30.4
2009-06-24 09:10:24 51°30.547 2°44.959 58.8 9 61 30.4
2009-06-24 09:11:24 51°30.622 2°45.168 58.4 9 58 32.1
2009-06-24 09:12:24 51°30.698 2°45.376 58.3 9 59 31.1
2009-06-24 09:13:24 51°30.77 2°45.582 57.8 8.8 61 37.5
2009-06-24 09:14:24 51°30.846 2°45.79 57.7 8.9 59 31.9
2009-06-24 09:15:24 51°30.92 2°45.993 57.8 8.5 60 32.8
2009-06-24 09:16:24 51°30.992 2°46.197 58.9 8.9 59 30.9
2009-06-24 09:17:24 51°31.065 2°46.404 58.3 8.9 60 27.4
2009-06-24 09:18:24 51°31.139 2°46.603 57.7 9 59 28.2
2009-06-24 09:19:24 51°31.213 2°46.807 58.2 8.9 60 28.2
2009-06-24 09:20:24 51°31.288 2°47.013 58.2 8.9 60 28.5
2009-06-24 09:21:24 51°31.362 2°47.22 58.2 8.7 63 28.3
2009-06-24 09:22:24 51°31.435 2°47.427 58.7 8.9 61 29.6
2009-06-24 09:23:24 51°31.507 2°47.64 59.6 9.2 61 29.1
2009-06-24 09:24:24 51°31.58 2°47.851 59.1 8.8 61 30.6
2009-06-24 09:25:24 51°31.653 2°48.058 57.3 9 59 29.2
2009-06-24 09:26:24 51°31.726 2°48.271 59 9.2 61 32.3
2009-06-24 09:27:24 51°31.797 2°48.482 58.3 8.7 62 30.8
2009-06-24 09:28:24 51°31.87 2°48.692 59.2 9 62 31
2009-06-24 09:29:24 51°31.941 2°48.898 58.8 9 62 30.2
2009-06-24 09:30:24 51°32.016 2°49.107 58.6 9.2 61 32.1
2009-06-24 09:31:24 51°32.092 2°49.316 58.9 9.2 62 30.5
2009-06-24 09:32:24 51°32.163 2°49.527 58.7 8.9 60 29.3
2009-06-24 09:33:24 51°32.234 2°49.733 58.1 8.6 61 30.1
2009-06-24 09:34:24 51°32.307 2°49.938 58 8.9 60 29.5
2009-06-24 09:35:24 51°32.379 2°50.147 58.2 9 61 30.4
2009-06-24 09:36:24 51°32.451 2°50.358 58.4 9.1 62 31.1
2009-06-24 09:37:24 51°32.522 2°50.564 58.1 8.5 63 32.2
2009-06-24 09:38:24 51°32.594 2°50.772 58.3 9.1 61 32.9
2009-06-24 09:39:24 51°32.667 2°50.987 58.5 9.2 60 33.5
2009-06-24 09:40:24 51°32.737 2°51.194 58.1 8.6 61 30.2
2009-06-24 09:41:24 51°32.808 2°51.404 58.5 8.9 60 25.4
2009-06-24 09:42:24 51°32.881 2°51.617 57.7 9.3 60 31.1
2009-06-24 09:43:24 51°32.956 2°51.83 58.4 9.2 62 29
2009-06-24 09:44:24 51°33.029 2°52.044 58.1 9 62 31
2009-06-24 09:45:24 51°33.104 2°52.258 57.6 9.2 62 29.2
2009-06-24 09:46:24 51°33.18 2°52.471 57.8 9.1 59 29.5
2009-06-24 09:47:24 51°33.255 2°52.685 58 9.4 61 30.3
2009-06-24 09:48:24 51°33.332 2°52.902 58.7 9.4 61 29.1
2009-06-24 09:49:24 51°33.406 2°53.116 58.2 9 61 30.4
2009-06-24 09:50:24 51°33.481 2°53.328 57.6 9.3 59 26.1
2009-06-24 09:51:24 51°33.555 2°53.538 58 9 59 27.1
2009-06-24 09:52:24 51°33.629 2°53.749 58.3 9.1 60 26.2
2009-06-24 09:53:24 51°33.702 2°53.961 58.1 9.1 60 29.4
2009-06-24 09:54:24 51°33.781 2°54.174 57.4 9.5 59 30.1
2009-06-24 09:55:24 51°33.857 2°54.387 58.4 9.1 61 27.7
2009-06-24 09:56:25 51°33.935 2°54.605 58.6 9.3 60 29.6
2009-06-24 09:57:24 51°34.011 2°54.817 57.6 9.4 58 29.6
2009-06-24 09:58:24 51°34.089 2°55.037 58 9.4 61 29.4
2009-06-24 09:59:24 51°34.162 2°55.251 58.8 9.2 61 28.7
2009-06-24 10:00:24 51°34.236 2°55.468 58.3 9.4 61 30.2
2009-06-24 10:01:24 51°34.31 2°55.683 58.8 9.2 64 31.4
2009-06-24 10:02:24 51°34.381 2°55.905 62 9.2 67 29.6
2009-06-24 10:03:24 51°34.445 2°56.134 62.5 9.4 67 31.7
2009-06-24 10:04:24 51°34.507 2°56.365 62.5 9.5 67 31.8
2009-06-24 10:05:24 51°34.567 2°56.592 63.2 9.2 67 32.2
2009-06-24 10:06:24 51°34.618 2°56.829 67.2 9.4 73 31.3
2009-06-24 10:07:25 51°34.667 2°57.072 67.1 9.4 72 30.8
2009-06-24 10:08:24 51°34.713 2°57.304 68 9.3 73 31.3
2009-06-24 10:09:24 51°34.749 2°57.548 71 9.5 79 29.1
2009-06-24 10:10:24 51°34.785 2°57.796 70.9 9.6 76 30.9
2009-06-24 10:11:24 51°34.815 2°58.047 73.8 9.6 80 28.7
2009-06-24 10:12:24 51°34.838 2°58.299 78.7 9.6 88 29.1
2009-06-24 10:13:24 51°34.835 2°58.562 85.3 9.9 96 28.7
2009-06-24 10:14:24 51°34.8 2°58.829 96.8 10.4 108 27.8
2009-06-24 10:15:24 51°34.738 2°59.094 104.5 10.8 115 26.5
2009-06-24 10:16:24 51°34.621 2°59.328 128.4 11.5 137 23.6
2009-06-24 10:17:24 51°34.445 2°59.477 152.4 12.2 160 24.7
2009-06-24 10:18:24 51°34.236 2°59.476 185.9 12.8 189 20.7
2009-06-24 10:19:24 51°34.032 2°59.364 204.4 13.2 202 20.1
2009-06-24 10:20:24 51°33.838 2°59.208 208.5 13 207 19.2
2009-06-24 10:21:24 51°33.648 2°59.043 207.1 13 205 19.2
2009-06-24 10:22:24 51°33.452 2°58.893 204.9 13.1 204 18.4
2009-06-24 10:23:24 51°33.253 2°58.756 206.2 13.1 203 15.3
2009-06-24 10:24:24 51°33.054 2°58.617 204.8 13.1 204 14.9
2009-06-24 10:25:24 51°32.855 2°58.479 205.7 13.1 202 15.2
2009-06-24 10:26:24 51°32.655 2°58.34 206.9 12.9 205 12.7
2009-06-24 10:27:24 51°32.457 2°58.209 204.6 12.9 200 15.5
2009-06-24 10:28:24 51°32.258 2°58.078 204 13 204 16.8
2009-06-24 10:29:24 51°32.075 2°57.904 221.5 12.6 220 21.9
2009-06-24 10:30:24 51°31.92 2°57.682 220.9 12.4 223 24.6
2009-06-24 10:31:24 51°31.752 2°57.483 219 12.5 214 30
2009-06-24 10:32:24 51°31.585 2°57.283 220.7 12.6 216 31.8
2009-06-24 10:33:24 51°31.42 2°57.077 219.3 12.7 218 32.4
2009-06-24 10:34:24 51°31.262 2°56.859 230.6 12.3 233 31.9
2009-06-24 10:35:24 51°31.172 2°56.568 260.4 12.1 255 32.6
2009-06-24 10:36:24 51°31.138 2°56.248 269.9 12.1 262 32.5
2009-06-24 10:37:24 51°31.11 2°55.927 268.9 12 264 28.2
2009-06-24 10:38:24 51°31.08 2°55.614 271 11.8 262 20.7
2009-06-24 10:39:24 51°31.053 2°55.298 272.1 11.8 266 18.6
2009-06-24 10:40:24 51°31.023 2°54.985 269.2 11.9 260 16.7
2009-06-24 10:41:24 51°30.996 2°54.67 268.6 12 259 19
2009-06-24 10:42:24 51°30.968 2°54.356 271.1 11.9 262 19.3
2009-06-24 10:43:24 51°30.939 2°54.042 269.4 12.1 261 14.8
2009-06-24 10:44:24 51°30.913 2°53.726 270.8 11.9 265 19.5
2009-06-24 10:45:24 51°30.887 2°53.411 272.3 11.8 264 18.5
2009-06-24 10:46:24 51°30.857 2°53.095 268.8 12.1 260 20.2
2009-06-24 10:47:24 51°30.83 2°52.78 270.6 12 260 20.2
2009-06-24 10:48:24 51°30.806 2°52.462 269.5 11.9 264 20.3
2009-06-24 10:49:24 51°30.781 2°52.145 270 12.4 261 20.9
2009-06-24 10:50:24 51°30.754 2°51.829 268.6 12.1 258 20.6
2009-06-24 10:51:24 51°30.729 2°51.514 270.1 11.8 267 21.1
2009-06-24 10:52:24 51°30.704 2°51.199 270.6 12.1 265 22.5
2009-06-24 10:53:24 51°30.664 2°50.886 259.9 12.1 250 23.3
2009-06-24 10:54:24 51°30.566 2°50.6 242.6 12.1 236 22.5
2009-06-24 10:55:25 51°30.448 2°50.319 241.8 12.5 237 23.7
2009-06-24 10:56:24 51°30.336 2°50.048 240.7 12.3 235 24
2009-06-24 10:57:25 51°30.224 2°49.766 242.6 12.3 237 21.8
2009-06-24 10:58:24 51°30.117 2°49.49 244.7 12.2 239 23
2009-06-24 10:59:24 51°30.008 2°49.21 242.3 12.5 232 24
2009-06-24 11:00:24 51°29.9 2°48.932 241.8 12.3 238 23.4
2009-06-24 11:01:24 51°29.796 2°48.648 243.9 12.5 239 23.7
2009-06-24 11:02:24 51°29.7 2°48.361 245 12.2 246 25.1
2009-06-24 11:03:24 51°29.599 2°48.077 244.2 12.1 241 25
2009-06-24 11:04:25 51°29.5 2°47.786 246.8 12.2 243 24.9
2009-06-24 11:05:24 51°29.405 2°47.503 246.1 12.4 242 25.2
2009-06-24 11:06:25 51°29.304 2°47.215 244.5 12 244 24.3
2009-06-24 11:07:24 51°29.21 2°46.931 246.9 12.1 244 25.3
2009-06-24 11:08:25 51°29.11 2°46.643 245.1 12.4 240 25.3
2009-06-24 11:09:24 51°29.016 2°46.36 246.1 12.4 238 23.5
2009-06-24 11:10:25 51°28.917 2°46.07 243.7 12.2 242 25.5
2009-06-24 11:11:25 51°28.825 2°45.787 247.2 12.1 245 27.8
2009-06-24 11:12:24 51°28.757 2°45.497 253.6 11.7 251 27.1
2009-06-24 11:13:25 51°28.695 2°45.19 256.3 12.1 251 27.4
2009-06-24 11:14:24 51°28.633 2°44.895 255.1 12.1 251 26.5
2009-06-24 11:15:24 51°28.565 2°44.603 250.9 11.8 240 28.8
2009-06-24 11:16:24 51°28.459 2°44.333 236.2 12.2 234 30.2
2009-06-24 11:17:24 51°28.334 2°44.09 229.5 12 227 31.5
2009-06-24 11:18:24 51°28.193 2°43.871 225.1 11.9 223 30.9
2009-06-24 11:19:24 51°28.048 2°43.655 225.9 12.1 217 32.4
2009-06-24 11:20:25 51°27.903 2°43.431 224.1 11.9 220 32.6
2009-06-24 11:21:24 51°27.767 2°43.212 227 11.9 224 33.2
2009-06-24 11:22:24 51°27.627 2°42.991 227.2 11.8 223 33.5
2009-06-24 11:23:24 51°27.471 2°42.799 209.8 12.1 209 33.2
2009-06-24 11:24:24 51°27.274 2°42.75 182.7 12.1 179 33
2009-06-24 11:25:24 51°27.075 2°42.776 167.2 12.1 171 32.8
2009-06-24 11:26:24 51°26.901 2°42.909 139.3 11.4 143 31.7
2009-06-24 11:27:24 51°26.794 2°43.15 110.3 10.9 112 29.1
2009-06-24 11:28:24 51°26.775 2°43.42 84.5 10 85 27.9
2009-06-24 11:29:24 51°26.816 2°43.68 70.5 10 73 24.6
2009-06-24 11:30:24 51°26.878 2°43.931 66.2 10.3 67 25.1
2009-06-24 11:31:24 51°26.941 2°44.19 68.6 10.4 71 25.6
2009-06-24 11:32:24 51°26.998 2°44.454 70 10.8 73 27.9
2009-06-24 11:33:24 51°27.051 2°44.726 70.5 10.8 72 29.1
2009-06-24 11:34:24 51°27.12 2°44.983 62.1 10.4 61 29.6
2009-06-24 11:35:24 51°27.201 2°45.226 61.6 10.3 61 29.7
2009-06-24 11:36:24 51°27.278 2°45.475 62.9 10.7 63 29.5
2009-06-24 11:37:24 51°27.356 2°45.734 60.2 10.7 62 29.7
2009-06-24 11:38:25 51°27.443 2°45.992 59.2 11.1 61 29.9
2009-06-24 11:39:24 51°27.526 2°46.243 60.4 10.8 62 30.4
2009-06-24 11:40:24 51°27.612 2°46.499 59.5 11.1 62 30.6
2009-06-24 11:41:24 51°27.698 2°46.756 59.6 10.7 61 32.3
2009-06-24 11:42:24 51°27.783 2°47.008 60.4 10.7 59 34.1
2009-06-24 11:43:24 51°27.866 2°47.259 60.5 10.8 62 33.7
2009-06-24 11:44:24 51°27.953 2°47.511 59.8 10.8 61 33.1
2009-06-24 11:45:25 51°28.037 2°47.772 59.5 10.9 64 31.6
2009-06-24 11:46:24 51°28.12 2°48.021 60.3 11.1 62 33.7
2009-06-24 11:47:25 51°28.206 2°48.285 60.2 11 62 31.4
2009-06-24 11:48:24 51°28.292 2°48.544 59.8 11.2 64 27.2
2009-06-24 11:49:25 51°28.379 2°48.812 59.5 11 61 32
2009-06-24 11:50:25 51°28.464 2°49.076 59.8 11.1 63 34.4
2009-06-24 11:51:24 51°28.549 2°49.337 59.7 11.4 63 30.7
2009-06-24 11:52:24 51°28.631 2°49.595 60.4 10.9 62 31.9
2009-06-24 11:53:24 51°28.716 2°49.859 60.9 11.3 63 28.7
2009-06-24 11:54:24 51°28.802 2°50.123 60.3 11.3 63 27.9
2009-06-24 11:55:24 51°28.888 2°50.388 60.1 11 60 28.4
2009-06-24 11:56:25 51°28.976 2°50.659 60.1 11.3 64 29.4
2009-06-24 11:57:24 51°29.061 2°50.924 60.6 11.4 63 28.5
2009-06-24 11:58:24 51°29.147 2°51.195 59.9 11.4 62 31.8
2009-06-24 11:59:25 51°29.235 2°51.469 60.5 11.4 64 29.2
2009-06-24 12:00:25 51°29.324 2°51.742 59.6 11.5 62 31.8
2009-06-24 12:01:25 51°29.413 2°52.012 59.3 11.2 61 31.9
2009-06-24 12:02:24 51°29.499 2°52.278 61.2 11.4 65 31.8
2009-06-24 12:03:25 51°29.59 2°52.557 60.4 11.7 64 32.8
2009-06-24 12:04:24 51°29.678 2°52.83 60.7 11.9 62 32.7
2009-06-24 12:05:24 51°29.766 2°53.102 60.8 11.3 63 32.8
2009-06-24 12:06:25 51°29.857 2°53.379 60.3 11.9 62 33.2
2009-06-24 12:07:24 51°29.945 2°53.649 60.3 11.7 61 34.1
2009-06-24 12:08:25 51°30.04 2°53.927 60.4 11.7 62 33.1
2009-06-24 12:09:24 51°30.129 2°54.198 60.3 11.7 64 33.1
2009-06-24 12:10:25 51°30.212 2°54.49 65.8 11.9 68 35
2009-06-24 12:11:25 51°30.286 2°54.782 65.9 11.8 67 35.8
2009-06-24 12:12:24 51°30.36 2°55.069 65.5 11.9 67 37.4
2009-06-24 12:13:24 51°30.435 2°55.356 65.2 11.8 67 37.8
2009-06-24 12:14:24 51°30.51 2°55.643 65.7 11.7 66 36.2
2009-06-24 12:15:25 51°30.588 2°55.933 64.7 11.6 66 34.2
2009-06-24 12:16:25 51°30.659 2°56.216 66.1 11.4 69 34.3
2009-06-24 12:17:24 51°30.733 2°56.497 65.4 11.6 68 33.5
2009-06-24 12:18:24 51°30.809 2°56.783 65.1 11.8 66 31.8
2009-06-24 12:19:24 51°30.885 2°57.071 65.4 11.8 65 32.1
2009-06-24 12:20:24 51°30.962 2°57.358 65.4 11.8 68 32.6
2009-06-24 12:21:24 51°31.039 2°57.645 65.1 11.8 66 31.7
2009-06-24 12:22:25 51°31.118 2°57.938 65.3 11.8 66 31.8
2009-06-24 12:23:24 51°31.195 2°58.222 65.6 11.7 67 30.9
2009-06-24 12:24:24 51°31.272 2°58.508 66 11.7 67 30.7
2009-06-24 12:25:25 51°31.35 2°58.803 65 11.8 67 30.5
2009-06-24 12:26:25 51°31.43 2°59.092 64.8 11.8 66 30.1
2009-06-24 12:27:24 51°31.505 2°59.376 66.1 11.6 69 29.6
2009-06-24 12:28:25 51°31.583 2°59.67 65.6 11.7 67 29.8
2009-06-24 12:29:24 51°31.66 2°59.955 65.4 11.8 67 29
2009-06-24 12:30:25 51°31.737 3°0.248 65.5 11.7 67 27.5
2009-06-24 12:31:26 51°31.813 3°0.54 65.2 11.5 68 26.8
2009-06-24 12:32:25 51°31.888 3°0.825 65.2 11.7 67 27.2
2009-06-24 12:33:25 51°31.964 3°1.112 64.5 11.6 66 28
2009-06-24 12:34:25 51°32.039 3°1.403 65.1 11.9 67 27.1
2009-06-24 12:35:25 51°32.114 3°1.693 65.4 11.7 66 28.4
2009-06-24 12:36:24 51°32.189 3°1.978 65.5 11.7 68 27.7
2009-06-24 12:37:25 51°32.265 3°2.274 65.8 11.7 70 26.3
2009-06-24 12:38:24 51°32.269 3°2.579 101.5 12.1 102 28.9
2009-06-24 12:39:24 51°32.202 3°2.884 118.6 12.2 117 30.1
2009-06-24 12:40:25 51°32.072 3°3.134 141.3 12 136 30.9
2009-06-24 12:41:25 51°31.904 3°3.295 160.7 11.7 152 31.1
2009-06-24 12:42:25 51°31.725 3°3.294 202.7 10.4 204 31.2
2009-06-24 12:43:24 51°31.569 3°3.177 216.3 10.4 213 31.1
2009-06-24 12:44:25 51°31.449 3°2.977 236 10.2 228 30.5
2009-06-24 12:45:24 51°31.356 3°2.76 237.7 9.9 240 30.4
2009-06-24 12:46:25 51°31.267 3°2.528 240.6 10.2 237 30.5
2009-06-24 12:47:25 51°31.17 3°2.306 235.5 10.3 233 29.8
2009-06-24 12:48:25 51°31.065 3°2.093 235.5 9.9 231 30.1
2009-06-24 12:49:25 51°30.961 3°1.883 235 10.1 230 30
2009-06-24 12:50:25 51°30.858 3°1.673 237 9.8 231 29.3
2009-06-24 12:51:25 51°30.757 3°1.457 236.7 10.1 227 29.5
2009-06-24 12:52:24 51°30.662 3°1.245 237 10 242 29.5
2009-06-24 12:53:25 51°30.558 3°1.032 236.5 10 227 29.3
2009-06-24 12:54:24 51°30.46 3°0.822 238.4 9.9 230 29.9
2009-06-24 12:55:24 51°30.362 3°0.607 236 10.2 231 29.9
2009-06-24 12:56:25 51°30.261 3°0.384 238.5 10 238 29.8
2009-06-24 12:57:25 51°30.159 3°0.168 237.5 10 231 29.1
2009-06-24 12:58:24 51°30.06 2°59.961 236.3 9.8 231 29.1
2009-06-24 12:59:24 51°29.958 2°59.748 236.3 10.2 230 29.2
2009-06-24 13:00:25 51°29.855 2°59.53 235.3 10.4 232 29.5
2009-06-24 13:01:24 51°29.759 2°59.311 237.3 10.3 234 28.7
2009-06-24 13:02:25 51°29.662 2°59.084 237.7 10.4 231 29.5
2009-06-24 13:03:24 51°29.573 2°58.856 238.2 10.4 245 28.2
2009-06-24 13:04:24 51°29.475 2°58.631 237.1 10.2 229 28.8
2009-06-24 13:05:24 51°29.383 2°58.402 239 10.4 238 29.2
2009-06-24 13:06:25 51°29.291 2°58.174 239.9 10.2 233 28.2
2009-06-24 13:07:24 51°29.208 2°57.946 241.3 10 235 28.3
2009-06-24 13:08:25 51°29.118 2°57.715 241.5 10.2 237 27.8
2009-06-24 13:09:25 51°29.032 2°57.485 241.1 10.2 236 28.1
2009-06-24 13:10:24 51°28.95 2°57.259 243 9.7 242 28.8
2009-06-24 13:11:25 51°28.862 2°57.03 239.4 10.1 239 26.8
2009-06-24 13:12:25 51°28.776 2°56.804 239.6 10.1 238 29.2
2009-06-24 13:13:25 51°28.692 2°56.572 240.8 10 242 28.6
2009-06-24 13:14:25 51°28.606 2°56.337 239.9 10 236 28.2
2009-06-24 13:15:25 51°28.523 2°56.104 241.5 10 237 27.9
2009-06-24 13:16:25 51°28.441 2°55.863 242 10.2 243 27.4
2009-06-24 13:17:25 51°28.357 2°55.626 241.6 10.5 238 26.3
2009-06-24 13:18:25 51°28.272 2°55.388 239.6 10.3 240 27.9
2009-06-24 13:19:25 51°28.185 2°55.154 239.6 10.5 241 26.5
2009-06-24 13:20:25 51°28.1 2°54.918 241.8 10 243 24.8
2009-06-24 13:21:24 51°28.016 2°54.691 238.1 10.2 233 26
2009-06-24 13:22:25 51°27.931 2°54.456 240.3 9.6 237 24.2
2009-06-24 13:23:24 51°27.849 2°54.231 240.1 10.1 242 25.1
2009-06-24 13:24:24 51°27.762 2°53.996 238.7 10.3 233 24.5
2009-06-24 13:25:24 51°27.679 2°53.759 239.5 10.2 237 25.4
2009-06-24 13:26:25 51°27.593 2°53.524 238.2 10.2 241 25.7
2009-06-24 13:27:25 51°27.508 2°53.292 238.7 10.1 240 23.3
2009-06-24 13:28:24 51°27.426 2°53.066 239 10.1 240 22.7
2009-06-24 13:29:25 51°27.339 2°52.833 236.5 10.2 238 23.6
2009-06-24 13:30:25 51°27.257 2°52.603 241.5 10.2 246 23.1
2009-06-24 13:31:25 51°27.17 2°52.382 235 9.9 237 22.7
2009-06-24 13:32:25 51°27.086 2°52.16 238.1 9.8 238 21.8
2009-06-24 13:33:25 51°27.004 2°51.937 238.6 9.7 234 24.5
2009-06-24 13:34:25 51°26.921 2°51.715 237 10.1 235 26.3
2009-06-24 13:35:24 51°26.838 2°51.493 239.4 10.3 238 25.5
2009-06-24 13:36:25 51°26.752 2°51.263 237.9 10 236 26.7
2009-06-24 13:37:24 51°26.664 2°51.05 237.4 9.7 230 26.7
2009-06-24 13:38:25 51°26.569 2°50.827 236.9 9.9 231 25.5
2009-06-24 13:39:25 51°26.481 2°50.609 240.5 9.7 241 25.7
2009-06-24 13:40:24 51°26.392 2°50.395 237.1 10.1 238 25.8
2009-06-24 13:41:25 51°26.3 2°50.18 236.8 9.6 231 25.9
2009-06-24 13:42:25 51°26.213 2°49.964 239 9.7 244 25.4
2009-06-24 13:43:25 51°26.124 2°49.752 239.7 9.4 240 25.6
2009-06-24 13:44:25 51°26.036 2°49.538 237.7 9.8 242 25.7
2009-06-24 13:45:25 51°25.948 2°49.325 237.1 9.5 241 25.5
2009-06-24 13:46:25 51°25.861 2°49.113 238.3 9.6 238 26.9
2009-06-24 13:47:25 51°25.776 2°48.899 236.9 9.5 235 26.8
2009-06-24 13:48:24 51°25.692 2°48.688 235.3 9.7 234 26.7
2009-06-24 13:49:25 51°25.606 2°48.471 236.7 9.4 232 26.5
2009-06-24 13:50:25 51°25.525 2°48.256 237.2 9.5 242 27.1
2009-06-24 13:51:24 51°25.441 2°48.049 234.7 9.4 240 29.6
2009-06-24 13:52:25 51°25.359 2°47.834 240.7 9.5 251 28.8
2009-06-24 13:53:25 51°25.28 2°47.624 235.4 9.3 239 29
2009-06-24 13:54:24 51°25.2 2°47.412 238.2 9.6 243 27.8
2009-06-24 13:55:24 51°25.114 2°47.199 237.4 9.8 236 27.3
2009-06-24 13:56:25 51°25.025 2°46.985 237.1 9.4 246 27.3
2009-06-24 13:57:25 51°24.936 2°46.777 236.4 9.7 235 27.7
2009-06-24 13:58:25 51°24.849 2°46.561 238 9.7 240 27.6
2009-06-24 13:59:24 51°24.761 2°46.351 235.2 9.8 233 27.7
2009-06-24 14:00:24 51°24.674 2°46.135 238.2 9.8 235 27.1
2009-06-24 14:01:25 51°24.587 2°45.914 238.9 9.3 246 27.6
2009-06-24 14:02:24 51°24.503 2°45.705 237.4 9.5 237 28.1
2009-06-24 14:03:25 51°24.372 2°45.573 199.8 9.3 190 28
2009-06-24 14:04:24 51°24.211 2°45.587 175.1 10.4 164 28.5
2009-06-24 14:05:25 51°24.04 2°45.651 175.7 10.6 166 29.5
2009-06-24 14:06:24 51°23.875 2°45.7 175.1 10 173 29.5
2009-06-24 14:07:25 51°23.703 2°45.754 175 10.6 168 29.7
2009-06-24 14:08:24 51°23.534 2°45.813 175.1 10.2 176 29.6
2009-06-24 14:09:24 51°23.363 2°45.872 177.6 10.6 165 29
2009-06-24 14:10:25 51°23.191 2°45.927 174.1 10.2 167 28.6
2009-06-24 14:11:24 51°23.023 2°45.986 173.6 10.6 166 27.5
2009-06-24 14:12:24 51°22.856 2°46.069 165.6 10.8 159 26.5
2009-06-24 14:13:25 51°22.713 2°46.25 139.7 11 131 25.8
2009-06-24 14:14:24 51°22.588 2°46.468 139.4 11.2 133 23.3
2009-06-24 14:15:25 51°22.464 2°46.697 140.6 10.9 135 21.1
2009-06-24 14:16:25 51°22.337 2°46.913 145.5 11.1 139 20.2
2009-06-24 14:17:24 51°22.202 2°47.109 146.7 11 141 23.9
2009-06-24 14:18:25 51°22.058 2°47.301 148.2 10.9 147 26.3
2009-06-24 14:19:24 51°21.913 2°47.468 156.8 10.9 153 26.5
2009-06-24 14:20:25 51°21.755 2°47.625 159.2 11 153 26.6
2009-06-24 14:21:25 51°21.602 2°47.783 155.9 11.3 144 25.5
2009-06-24 14:22:24 51°21.445 2°47.935 158.2 11.3 151 25.3
2009-06-24 14:23:25 51°21.285 2°48.101 153.2 10.8 149 24
2009-06-24 14:24:25 51°21.126 2°48.259 154.3 11.2 147 22
2009-06-24 14:25:24 51°20.969 2°48.416 155.1 11.5 149 22.4
2009-06-24 14:26:25 51°20.805 2°48.578 153.2 11.5 144 23.7
2009-06-24 14:27:25 51°20.647 2°48.734 149.9 11 143 24.8
2009-06-24 14:28:25 51°20.498 2°48.9 153.6 11.1 141 24.9
2009-06-24 14:29:24 51°20.351 2°49.062 151.8 10.9 138 24.9
2009-06-24 14:30:25 51°20.201 2°49.231 151.8 10.9 147 23.8
2009-06-24 14:31:24 51°20.055 2°49.394 149.3 10.7 144 22.2
2009-06-24 14:32:25 51°19.9 2°49.562 154.2 10.9 153 19.8
2009-06-24 14:33:25 51°19.748 2°49.73 151.6 11.2 143 17.4
2009-06-24 14:34:25 51°19.592 2°49.893 153.2 11.3 148 16.7
2009-06-24 14:35:25 51°19.439 2°50.066 148.7 11.1 146 14
2009-06-24 14:36:24 51°19.285 2°50.228 154.8 11.5 147 14
2009-06-24 14:37:25 51°19.127 2°50.395 155.4 11.2 151 15.5
2009-06-24 14:38:24 51°18.974 2°50.554 149 11 150 16.9
2009-06-24 14:39:25 51°18.813 2°50.713 152.7 10.8 151 17.1
2009-06-24 14:40:24 51°18.662 2°50.877 151.3 11.2 146 16.6
2009-06-24 14:41:25 51°18.511 2°51.053 148.5 10.6 147 16.5
2009-06-24 14:42:25 51°18.363 2°51.222 148.7 10.9 149 15.4
2009-06-24 14:43:24 51°18.216 2°51.394 150.4 11.2 151 14.8
2009-06-24 14:44:25 51°18.059 2°51.56 151.2 11.2 140 13.3
2009-06-24 14:45:25 51°17.905 2°51.714 152.5 10.8 146 12.6
2009-06-24 14:46:25 51°17.748 2°51.858 157.5 10.9 158 12.5
2009-06-24 14:47:24 51°17.593 2°51.994 156.2 11.1 148 12.8
2009-06-24 14:48:25 51°17.431 2°52.133 156.1 10.8 154 13.4
2009-06-24 14:49:25 51°17.272 2°52.265 157.9 10.9 148 13.2
2009-06-24 14:50:25 51°17.114 2°52.403 155.5 11.1 144 12.4
2009-06-24 14:51:25 51°16.956 2°52.54 159 10.8 153 12.5
2009-06-24 14:52:25 51°16.799 2°52.681 154.7 11.1 142 12.3
2009-06-24 14:53:26 51°16.64 2°52.825 157.4 10.9 153 13.5
2009-06-24 14:54:24 51°16.486 2°52.966 151.2 10.9 150 14
2009-06-24 14:55:25 51°16.322 2°53.108 159.7 11.1 157 14.4
2009-06-24 14:56:25 51°16.165 2°53.256 154.9 10.9 148 14.2
2009-06-24 14:57:24 51°16.006 2°53.393 157.9 11.4 151 13.8
2009-06-24 14:58:25 51°15.84 2°53.529 156.6 10.7 155 13.2
2009-06-24 14:59:25 51°15.679 2°53.67 156.1 11 154 13.9
2009-06-24 15:00:25 51°15.515 2°53.807 158.7 11.2 157 13.7
2009-06-24 15:01:25 51°15.35 2°53.944 157.3 11.5 156 12.9
2009-06-24 15:02:24 51°15.187 2°54.075 156.4 11 154 11.1
2009-06-24 15:03:25 51°15.018 2°54.209 157.5 11.1 150 10.9
2009-06-24 15:04:25 51°14.858 2°54.347 156.2 11.1 149 12
2009-06-24 15:05:24 51°14.703 2°54.489 152.4 11.3 148 12.5
2009-06-24 15:06:25 51°14.547 2°54.678 142.1 11.8 134 12.4
2009-06-24 15:07:25 51°14.415 2°54.906 134.4 11.6 130 12.4
2009-06-24 15:08:24 51°14.309 2°55.147 124.9 10.9 127 12.5
2009-06-24 15:09:25 51°14.199 2°55.337 136.7 8.3 141 12.6
2009-06-24 15:10:23 51°14.093 2°55.434 156 6.7 156 12.3
2009-06-24 15:11:25 51°13.995 2°55.502 154.9 5.9 156 12.5
2009-06-24 15:12:25 51°13.918 2°55.557 154.9 4.5 156 13
2009-06-24 15:13:23 51°13.854 2°55.606 154 4.9 154 12
2009-06-24 15:14:25 51°13.776 2°55.683 140.8 5.6 140 12.6
2009-06-24 15:15:23 51°13.715 2°55.787 129.2 4.9 129 14.1
2009-06-24 15:16:25 51°13.676 2°55.875 116.7 3.2 119 10.7
2009-06-24 15:17:25 51°13.663 2°55.944 97.8 1.7 100 8.5
2009-06-24 15:18:23 51°13.66 2°55.956 112.8 0.2 101 8.4